createdAt,value
2022-08-17T00:01:55.895Z,25.00
2022-08-17T00:04:50.320Z,25.00
2022-08-17T00:07:38.753Z,25.00
2022-08-17T00:10:26.705Z,24.90
2022-08-17T00:13:17.263Z,24.90
2022-08-17T00:16:11.989Z,24.90
2022-08-17T00:19:07.412Z,24.90
2022-08-17T00:22:34.647Z,24.80
2022-08-17T00:25:09.864Z,24.90
2022-08-17T00:27:57.400Z,24.80
2022-08-17T00:30:53.001Z,24.80
2022-08-17T00:33:43.749Z,24.80
2022-08-17T00:36:31.389Z,24.80
2022-08-17T00:39:20.453Z,24.80
2022-08-17T00:42:14.579Z,24.80
2022-08-17T00:45:04.345Z,24.70
2022-08-17T00:47:52.651Z,24.70
2022-08-17T00:50:42.565Z,24.70
2022-08-17T00:53:31.909Z,24.70
2022-08-17T00:56:23.629Z,24.70
2022-08-17T00:59:11.296Z,24.70
2022-08-17T01:01:59.430Z,24.70
2022-08-17T01:04:48.442Z,24.70
2022-08-17T01:07:38.060Z,24.70
2022-08-17T01:11:00.146Z,24.70
2022-08-17T01:13:41.926Z,24.70
2022-08-17T01:16:30.738Z,24.70
2022-08-17T01:19:20.153Z,24.70
2022-08-17T01:22:17.929Z,24.70
2022-08-17T01:25:07.477Z,24.60
2022-08-17T01:27:55.694Z,24.70
2022-08-17T01:30:57.777Z,24.70
2022-08-17T01:33:47.585Z,24.60
2022-08-17T01:36:35.710Z,24.60
2022-08-17T01:39:30.360Z,24.60
2022-08-17T01:42:21.931Z,24.60
2022-08-17T01:45:11.331Z,24.60
2022-08-17T01:47:59.132Z,24.50
2022-08-17T01:50:47.968Z,24.50
2022-08-17T01:53:37.778Z,24.50
2022-08-17T01:56:27.256Z,24.50
2022-08-17T01:59:14.785Z,24.50
2022-08-17T02:02:04.813Z,24.50
2022-08-17T02:04:52.845Z,24.50
2022-08-17T02:07:59.415Z,24.50
2022-08-17T02:10:48.452Z,24.50
2022-08-17T02:13:38.076Z,24.50
2022-08-17T02:16:26.109Z,24.50
2022-08-17T02:19:15.654Z,24.50
2022-08-17T02:22:03.547Z,24.40
2022-08-17T02:24:59.900Z,24.40
2022-08-17T02:27:49.120Z,24.40
2022-08-17T02:30:59.427Z,24.40
2022-08-17T02:33:45.553Z,24.40
2022-08-17T02:36:44.879Z,24.40
2022-08-17T02:39:32.564Z,24.40
2022-08-17T02:42:22.917Z,24.40
2022-08-17T02:45:12.206Z,24.40
2022-08-17T02:48:01.691Z,24.40
2022-08-17T02:50:49.506Z,24.40
2022-08-17T02:53:37.418Z,24.40
2022-08-17T02:56:24.942Z,24.40
2022-08-17T02:59:12.907Z,24.40
2022-08-17T03:02:00.649Z,24.40
2022-08-17T03:04:50.102Z,24.40
2022-08-17T03:07:38.339Z,24.30
2022-08-17T03:10:25.884Z,24.30
2022-08-17T03:13:14.490Z,24.40
2022-08-17T03:16:02.174Z,24.30
2022-08-17T03:18:49.895Z,24.30
2022-08-17T03:21:39.411Z,24.30
2022-08-17T03:24:28.749Z,24.30
2022-08-17T03:27:17.334Z,24.30
2022-08-17T03:30:06.179Z,24.30
2022-08-17T03:32:56.030Z,24.30
2022-08-17T03:35:43.774Z,24.30
2022-08-17T03:38:39.181Z,24.30
2022-08-17T03:41:27.613Z,24.30
2022-08-17T03:44:15.882Z,24.30
2022-08-17T03:47:21.390Z,24.30
2022-08-17T03:50:33.876Z,24.30
2022-08-17T03:53:39.558Z,24.20
2022-08-17T03:56:44.182Z,24.20
2022-08-17T03:59:32.041Z,24.20
2022-08-17T04:02:22.267Z,24.10
2022-08-17T04:05:10.140Z,24.10
2022-08-17T04:07:58.053Z,24.10
2022-08-17T04:10:46.064Z,24.20
2022-08-17T04:13:35.669Z,24.10
2022-08-17T04:16:23.582Z,24.10
2022-08-17T04:19:11.398Z,24.10
2022-08-17T04:21:59.284Z,24.10
2022-08-17T04:24:47.325Z,24.10
2022-08-17T04:27:35.305Z,24.10
2022-08-17T04:30:24.542Z,24.10
2022-08-17T04:33:14.146Z,24.10
2022-08-17T04:36:03.426Z,24.10
2022-08-17T04:38:51.474Z,24.10
2022-08-17T04:41:57.187Z,24.10
2022-08-17T04:44:45.057Z,24.10
2022-08-17T04:47:37.648Z,24.10
2022-08-17T04:50:25.249Z,24.10
2022-08-17T04:53:13.262Z,24.10
2022-08-17T04:56:01.037Z,24.10
2022-08-17T04:58:50.262Z,24.10
2022-08-17T05:01:39.474Z,24.10
2022-08-17T05:04:33.924Z,24.10
2022-08-17T05:07:25.384Z,24.10
2022-08-17T05:10:15.237Z,24.10
2022-08-17T05:13:04.005Z,24.10
2022-08-17T05:15:55.085Z,24.10
2022-08-17T05:18:42.777Z,24.10
2022-08-17T05:21:32.059Z,24.10
2022-08-17T05:24:42.738Z,24.10
2022-08-17T05:27:29.827Z,24.10
2022-08-17T05:30:23.674Z,24.10
2022-08-17T05:33:31.379Z,24.20
2022-08-17T05:36:43.886Z,24.20
2022-08-17T05:39:51.275Z,24.20
2022-08-17T05:42:39.086Z,24.30
2022-08-17T05:45:56.133Z,24.30
2022-08-17T05:49:04.432Z,24.30
2022-08-17T05:52:19.750Z,24.30
2022-08-17T05:55:15.371Z,24.30
2022-08-17T05:58:11.392Z,24.30
2022-08-17T06:01:04.182Z,24.40
2022-08-17T06:03:56.089Z,24.40
2022-08-17T06:06:49.261Z,24.40
2022-08-17T06:10:00.433Z,24.40
2022-08-17T06:12:55.303Z,24.40
2022-08-17T06:15:47.492Z,24.40
2022-08-17T06:18:37.798Z,24.40
2022-08-17T06:21:32.110Z,24.50
2022-08-17T06:24:28.557Z,24.40
2022-08-17T06:27:22.013Z,24.40
2022-08-17T06:30:12.255Z,24.40
2022-08-17T06:33:02.824Z,24.40
2022-08-17T06:36:02.642Z,24.40
2022-08-17T06:39:02.611Z,24.40
2022-08-17T06:41:53.897Z,24.40
2022-08-17T06:44:50.955Z,24.40
2022-08-17T06:47:48.461Z,24.40
2022-08-17T06:50:38.306Z,24.40
2022-08-17T06:53:36.147Z,24.40
2022-08-17T06:56:54.227Z,24.40
2022-08-17T06:59:55.163Z,24.40
2022-08-17T07:02:52.194Z,24.40
2022-08-17T07:05:43.921Z,24.50
2022-08-17T07:08:35.554Z,24.50
2022-08-17T07:11:28.320Z,24.50
2022-08-17T07:14:25.082Z,24.40
2022-08-17T07:17:15.016Z,24.50
2022-08-17T07:20:22.673Z,24.50
2022-08-17T07:23:15.069Z,24.50
2022-08-17T07:26:05.556Z,24.50
2022-08-17T07:28:56.093Z,24.50
2022-08-17T07:31:44.048Z,24.50
2022-08-17T07:34:33.564Z,24.50
2022-08-17T07:37:21.375Z,24.50
2022-08-17T07:40:30.547Z,24.50
2022-08-17T07:43:37.609Z,24.50
2022-08-17T07:47:08.516Z,24.50
2022-08-17T07:50:27.616Z,24.60
2022-08-17T07:53:18.862Z,24.60
2022-08-17T07:56:44.546Z,24.60
2022-08-17T08:00:16.524Z,24.60
2022-08-17T08:03:27.165Z,24.60
2022-08-17T08:06:38.114Z,24.60
2022-08-17T08:09:47.283Z,24.70
2022-08-17T08:13:05.747Z,24.60
2022-08-17T08:16:25.515Z,24.70
2022-08-17T08:19:33.938Z,24.70
2022-08-17T08:22:48.045Z,24.60
2022-08-17T08:26:03.567Z,24.60
2022-08-17T08:29:14.648Z,24.60
2022-08-17T08:32:32.269Z,24.60
2022-08-17T08:35:44.315Z,24.60
2022-08-17T08:38:56.617Z,24.60
2022-08-17T08:42:07.796Z,24.60
2022-08-17T08:45:23.537Z,24.70
2022-08-17T08:48:58.747Z,24.70
2022-08-17T08:52:11.885Z,24.70
2022-08-17T08:55:23.109Z,24.70
2022-08-17T08:58:42.315Z,24.70
2022-08-17T09:01:55.684Z,24.70
2022-08-17T09:05:14.470Z,24.70
2022-08-17T09:08:25.681Z,24.70
2022-08-17T09:12:01.051Z,24.60
2022-08-17T09:15:12.875Z,24.60
2022-08-17T09:19:00.743Z,24.60
2022-08-17T09:21:52.541Z,24.40
2022-08-17T09:25:06.474Z,24.50
2022-08-17T09:28:20.132Z,24.40
2022-08-17T09:31:46.452Z,24.40
2022-08-17T09:35:00.256Z,24.30
2022-08-17T09:38:17.133Z,24.30
2022-08-17T09:41:29.533Z,24.40
2022-08-17T09:44:40.463Z,24.40
2022-08-17T09:47:51.231Z,24.50
2022-08-17T09:51:05.718Z,24.50
2022-08-17T09:54:38.123Z,24.50
2022-08-17T09:57:50.161Z,24.60
2022-08-17T10:01:03.075Z,24.60
2022-08-17T10:04:29.655Z,24.50
2022-08-17T10:07:41.071Z,24.40
2022-08-17T10:10:56.882Z,24.40
2022-08-17T10:14:37.594Z,24.40
2022-08-17T10:17:40.583Z,24.40
2022-08-17T10:20:50.527Z,24.40
2022-08-17T10:24:21.046Z,24.30
2022-08-17T10:27:33.269Z,24.40
2022-08-17T10:30:47.637Z,24.50
2022-08-17T10:34:29.846Z,24.50
2022-08-17T10:37:54.765Z,24.40
2022-08-17T10:41:16.812Z,24.50
2022-08-17T10:44:37.917Z,24.40
2022-08-17T10:48:06.186Z,24.50
2022-08-17T10:51:37.805Z,24.50
2022-08-17T10:54:49.245Z,24.40
2022-08-17T10:58:18.139Z,24.30
2022-08-17T11:01:58.271Z,24.30
2022-08-17T11:05:19.691Z,24.20
2022-08-17T11:09:06.843Z,24.20
2022-08-17T11:12:21.838Z,24.30
2022-08-17T11:15:41.392Z,24.30
2022-08-17T11:19:16.919Z,24.20
2022-08-17T11:22:59.766Z,24.20
2022-08-17T11:26:26.174Z,24.30
2022-08-17T11:29:38.555Z,24.40
2022-08-17T11:32:54.667Z,24.40
2022-08-17T11:36:10.131Z,24.50
2022-08-17T11:39:27.346Z,24.50
2022-08-17T11:42:55.167Z,24.50
2022-08-17T11:46:15.848Z,24.50
2022-08-17T11:49:59.689Z,24.40
2022-08-17T11:52:48.333Z,24.40
2022-08-17T11:56:02.198Z,24.40
2022-08-17T11:59:23.730Z,24.50
2022-08-17T12:02:47.365Z,24.40
2022-08-17T12:06:03.031Z,24.40
2022-08-17T12:09:13.494Z,24.40
2022-08-17T12:12:21.505Z,24.50
2022-08-17T12:15:30.148Z,24.50
2022-08-17T12:18:24.437Z,24.50
2022-08-17T12:21:21.778Z,24.50
2022-08-17T12:24:15.731Z,24.60
2022-08-17T12:28:05.518Z,24.60
2022-08-17T12:30:39.231Z,24.60
2022-08-17T12:33:47.655Z,24.70
2022-08-17T12:36:35.203Z,24.70
2022-08-17T12:39:24.884Z,24.70
2022-08-17T12:42:23.276Z,24.70
2022-08-17T12:45:23.337Z,24.70
2022-08-17T12:48:13.126Z,24.70
2022-08-17T12:51:21.310Z,24.70
2022-08-17T12:54:27.994Z,24.70
2022-08-17T12:57:17.031Z,24.70
2022-08-17T13:00:10.476Z,24.80
2022-08-17T13:03:19.158Z,24.80
2022-08-17T13:06:14.300Z,24.70
2022-08-17T13:09:10.982Z,24.80
2022-08-17T13:12:01.003Z,24.70
2022-08-17T13:14:57.387Z,24.80
2022-08-17T13:17:44.991Z,24.80
2022-08-17T13:20:33.442Z,24.80
2022-08-17T13:23:40.223Z,24.80
2022-08-17T13:27:08.062Z,24.90
2022-08-17T13:29:58.112Z,24.90
2022-08-17T13:32:47.134Z,25.00
2022-08-17T13:35:49.936Z,25.00
2022-08-17T13:38:41.067Z,25.10
2022-08-17T13:41:33.553Z,25.10
2022-08-17T13:44:32.876Z,25.10
2022-08-17T13:47:20.790Z,25.10
2022-08-17T13:50:08.636Z,25.10
2022-08-17T13:52:58.038Z,25.10
2022-08-17T13:55:49.071Z,25.10
2022-08-17T13:58:37.479Z,25.20
2022-08-17T14:01:33.215Z,25.20
2022-08-17T14:04:22.766Z,25.20
2022-08-17T14:07:29.034Z,25.20
2022-08-17T14:10:36.468Z,25.20
2022-08-17T14:13:24.598Z,25.20
2022-08-17T14:16:12.577Z,25.20
2022-08-17T14:19:02.145Z,25.20
2022-08-17T14:21:50.076Z,25.20
2022-08-17T14:24:44.604Z,25.20
2022-08-17T14:27:41.635Z,25.30
2022-08-17T14:30:40.734Z,25.30
2022-08-17T14:33:29.168Z,25.20
2022-08-17T14:36:18.538Z,25.20
2022-08-17T14:39:06.721Z,25.30
2022-08-17T14:41:55.399Z,25.30
2022-08-17T14:44:42.799Z,25.30
2022-08-17T14:47:30.979Z,25.30
2022-08-17T14:50:19.693Z,25.30
2022-08-17T14:53:28.061Z,25.30
2022-08-17T14:56:37.994Z,25.40
2022-08-17T14:59:44.851Z,25.40
2022-08-17T15:02:53.741Z,25.40
2022-08-17T15:05:50.995Z,25.40
2022-08-17T15:08:59.054Z,25.40
2022-08-17T15:12:06.492Z,25.50
2022-08-17T15:15:14.725Z,25.50
2022-08-17T15:18:21.366Z,25.50
2022-08-17T15:21:27.861Z,25.60
2022-08-17T15:24:35.714Z,25.50
2022-08-17T15:27:28.272Z,25.60
2022-08-17T15:30:21.036Z,25.60
2022-08-17T15:33:30.334Z,25.60
2022-08-17T15:36:37.056Z,25.60
2022-08-17T15:39:46.832Z,25.60
2022-08-17T15:42:53.522Z,25.60
2022-08-17T15:46:02.127Z,25.60
2022-08-17T15:49:08.941Z,25.50
2022-08-17T15:51:56.754Z,25.50
2022-08-17T15:54:45.873Z,25.60
2022-08-17T15:57:53.222Z,25.50
2022-08-17T16:01:15.039Z,25.60
2022-08-17T16:04:30.250Z,25.50
2022-08-17T16:07:37.898Z,25.50
2022-08-17T16:10:45.878Z,25.50
2022-08-17T16:13:54.655Z,25.40
2022-08-17T16:16:46.181Z,25.40
2022-08-17T16:19:34.288Z,25.40
2022-08-17T16:22:30.753Z,25.50
2022-08-17T16:25:20.688Z,25.50
2022-08-17T16:28:09.844Z,25.50
2022-08-17T16:30:58.491Z,25.50
2022-08-17T16:34:03.784Z,25.50
2022-08-17T16:36:56.467Z,25.50
2022-08-17T16:39:45.483Z,25.60
2022-08-17T16:42:52.159Z,25.50
2022-08-17T16:46:01.725Z,25.60
2022-08-17T16:49:08.851Z,25.60
2022-08-17T16:52:03.027Z,25.60
2022-08-17T16:55:10.871Z,25.60
2022-08-17T16:58:20.189Z,25.60
2022-08-17T17:01:28.301Z,25.60
2022-08-17T17:04:35.446Z,25.60
2022-08-17T17:07:39.089Z,25.60
2022-08-17T17:10:46.734Z,25.70
2022-08-17T17:13:38.881Z,25.70
2022-08-17T17:16:50.706Z,25.70
2022-08-17T17:20:01.234Z,25.70
2022-08-17T17:23:09.865Z,25.70
2022-08-17T17:26:20.343Z,25.70
2022-08-17T17:29:47.417Z,25.70
2022-08-17T17:32:59.918Z,25.70
2022-08-17T17:36:09.767Z,25.70
2022-08-17T17:39:21.326Z,25.70
2022-08-17T17:42:31.302Z,25.70
2022-08-17T17:45:41.972Z,25.70
2022-08-17T17:48:31.345Z,25.80
2022-08-17T17:52:03.601Z,25.80
2022-08-17T17:55:19.987Z,25.80
2022-08-17T17:58:19.614Z,25.80
2022-08-17T18:01:36.077Z,25.80
2022-08-17T18:04:31.442Z,25.80
2022-08-17T18:07:40.690Z,25.80
2022-08-17T18:10:51.169Z,25.80
2022-08-17T18:13:52.075Z,25.80
2022-08-17T18:16:59.238Z,25.80
2022-08-17T18:20:07.987Z,25.80
2022-08-17T18:22:55.578Z,25.80
2022-08-17T18:25:44.834Z,25.80
2022-08-17T18:28:34.067Z,25.80
2022-08-17T18:31:22.235Z,25.80
2022-08-17T18:34:45.892Z,25.80
2022-08-17T18:37:38.457Z,25.80
2022-08-17T18:40:45.117Z,25.80
2022-08-17T18:43:44.308Z,25.70
2022-08-17T18:47:07.800Z,25.60
2022-08-17T18:49:57.811Z,25.50
2022-08-17T18:52:48.630Z,25.40
2022-08-17T18:55:37.968Z,25.40
2022-08-17T18:58:26.337Z,25.30
2022-08-17T19:01:18.894Z,25.20
2022-08-17T19:04:09.240Z,25.20
2022-08-17T19:07:08.225Z,25.10
2022-08-17T19:10:03.599Z,25.10
2022-08-17T19:12:55.048Z,25.10
2022-08-17T19:16:12.216Z,25.10
2022-08-17T19:19:01.692Z,25.00
2022-08-17T19:22:15.368Z,25.00
2022-08-17T19:25:19.863Z,25.00
2022-08-17T19:28:21.457Z,25.10
2022-08-17T19:31:21.867Z,25.10
2022-08-17T19:34:09.907Z,25.20
2022-08-17T19:36:59.573Z,25.20
2022-08-17T19:39:50.877Z,25.20
2022-08-17T19:42:47.581Z,25.20
2022-08-17T19:45:42.105Z,25.20
2022-08-17T19:48:38.986Z,25.30
2022-08-17T19:51:33.470Z,25.30
2022-08-17T19:54:27.156Z,25.30
2022-08-17T19:57:38.157Z,25.30
2022-08-17T20:00:27.600Z,25.30
2022-08-17T20:03:36.858Z,25.30
2022-08-17T20:06:45.077Z,25.20
2022-08-17T20:09:35.467Z,25.20
2022-08-17T20:12:42.112Z,25.20
2022-08-17T20:15:50.489Z,25.20
2022-08-17T20:19:00.261Z,25.20
2022-08-17T20:22:10.918Z,25.20
2022-08-17T20:25:16.893Z,25.20
2022-08-17T20:28:21.026Z,25.20
2022-08-17T20:31:44.439Z,25.20
2022-08-17T20:35:01.594Z,25.20
2022-08-17T20:38:10.853Z,25.10
2022-08-17T20:41:14.463Z,25.10
2022-08-17T20:44:32.150Z,25.10
2022-08-17T20:47:27.158Z,25.10
2022-08-17T20:50:28.087Z,25.10
2022-08-17T20:54:07.598Z,25.00
2022-08-17T20:56:57.821Z,25.10
2022-08-17T21:00:14.059Z,25.10
2022-08-17T21:03:50.252Z,25.00
2022-08-17T21:07:18.911Z,25.00
2022-08-17T21:10:36.767Z,24.90
2022-08-17T21:13:35.283Z,24.90
2022-08-17T21:16:38.713Z,24.90
2022-08-17T21:19:49.026Z,24.90
2022-08-17T21:22:52.919Z,24.90
2022-08-17T21:25:52.744Z,24.90
2022-08-17T21:29:00.681Z,24.90
2022-08-17T21:31:50.706Z,24.80
2022-08-17T21:34:39.170Z,24.80
2022-08-17T21:37:31.970Z,24.80
2022-08-17T21:40:24.883Z,24.80
2022-08-17T21:43:32.996Z,24.70
2022-08-17T21:46:42.891Z,24.70
2022-08-17T21:49:53.827Z,24.70
2022-08-17T21:53:00.701Z,24.70
2022-08-17T21:56:08.893Z,24.70
2022-08-17T21:58:58.672Z,24.60
2022-08-17T22:02:06.450Z,24.60
2022-08-17T22:05:14.409Z,24.60
2022-08-17T22:08:22.526Z,24.70
2022-08-17T22:11:31.440Z,24.70
2022-08-17T22:14:20.138Z,24.60
2022-08-17T22:17:10.926Z,24.60
2022-08-17T22:20:00.523Z,24.50
2022-08-17T22:23:22.695Z,24.50
2022-08-17T22:26:13.264Z,24.50
2022-08-17T22:29:02.698Z,24.50
2022-08-17T22:31:55.246Z,24.50
2022-08-17T22:34:42.973Z,24.40
2022-08-17T22:37:30.898Z,24.40
2022-08-17T22:40:26.428Z,24.40
2022-08-17T22:43:34.967Z,24.40
2022-08-17T22:46:59.874Z,24.30
2022-08-17T22:50:13.037Z,24.30
2022-08-17T22:53:38.729Z,24.40
2022-08-17T22:57:07.841Z,24.30
2022-08-17T23:00:32.535Z,24.30
2022-08-17T23:03:53.475Z,24.30
2022-08-17T23:07:00.124Z,24.30
2022-08-17T23:10:07.532Z,24.30
2022-08-17T23:12:59.656Z,24.30
2022-08-17T23:15:49.400Z,24.30
2022-08-17T23:18:37.452Z,24.30
2022-08-17T23:21:29.448Z,24.30
2022-08-17T23:24:20.803Z,24.30
2022-08-17T23:27:08.721Z,24.30
2022-08-17T23:29:56.766Z,24.30
2022-08-17T23:32:53.906Z,24.30
2022-08-17T23:35:42.831Z,24.30
2022-08-17T23:38:32.962Z,24.20
2022-08-17T23:41:21.718Z,24.20
2022-08-17T23:44:09.439Z,24.20
2022-08-17T23:46:59.842Z,24.10
2022-08-17T23:50:07.116Z,24.10
2022-08-17T23:53:13.930Z,24.10
2022-08-17T23:56:24.539Z,24.10
2022-08-17T23:59:22.640Z,24.10
